CGAAX CYWG-CYST
Flight info
| Callsign | CGAAX |
|---|---|
| Flight time | N/A |
| Altitude | 7500 |
| Route | CYWG CYST |
| Aircraft | C208/L-SDFGR/C |
Departure
| Time | N/A |
|---|---|
| Airport | Winnipeg / James Armstrong Richardson International Airport (CYWG) |
Arrival
| Time | 2026-05-07 03:21 |
|---|---|
| Airport | St. Theresa Point Airport (CYST) |
| Time | Latitude | Longitude | Altitude | Speed | Heading |
|---|---|---|---|---|---|
| 2026-05-07 01:35 | 50.33817 | -96.99266 | 7536 ft | 134 kts | 12° |
| 2026-05-07 01:35 | 50.34686 | -96.98777 | 7535 ft | 134 kts | 12° |
| 2026-05-07 01:35 | 50.35564 | -96.98284 | 7535 ft | 134 kts | 12° |
| 2026-05-07 01:36 | 50.36443 | -96.97789 | 7530 ft | 134 kts | 12° |
| 2026-05-07 01:36 | 50.37322 | -96.97296 | 7531 ft | 134 kts | 12° |
| 2026-05-07 01:36 | 50.38199 | -96.96803 | 7534 ft | 133 kts | 12° |
| 2026-05-07 01:36 | 50.39074 | -96.96311 | 7531 ft | 134 kts | 12° |
| 2026-05-07 01:37 | 50.39950 | -96.95818 | 7540 ft | 134 kts | 12° |
| 2026-05-07 01:37 | 50.40828 | -96.95323 | 7538 ft | 134 kts | 12° |
| 2026-05-07 01:37 | 50.41705 | -96.94831 | 7539 ft | 134 kts | 12° |
| 2026-05-07 01:37 | 50.42584 | -96.94335 | 7553 ft | 134 kts | 12° |
| 2026-05-07 01:38 | 50.43449 | -96.93846 | 7550 ft | 133 kts | 12° |
| 2026-05-07 01:38 | 50.44330 | -96.93349 | 7557 ft | 132 kts | 12° |
| 2026-05-07 01:38 | 50.45183 | -96.92869 | 7551 ft | 132 kts | 12° |
| 2026-05-07 01:38 | 50.46043 | -96.92384 | 7550 ft | 131 kts | 12° |
| 2026-05-07 01:39 | 50.46900 | -96.91899 | 7551 ft | 131 kts | 12° |
| 2026-05-07 01:39 | 50.47756 | -96.91416 | 7550 ft | 131 kts | 12° |
| 2026-05-07 01:39 | 50.48610 | -96.90933 | 7549 ft | 130 kts | 12° |
| 2026-05-07 01:39 | 50.49466 | -96.90449 | 7551 ft | 130 kts | 12° |
| 2026-05-07 01:40 | 50.50321 | -96.89967 | 7549 ft | 130 kts | 12° |
| 2026-05-07 01:40 | 50.51172 | -96.89484 | 7548 ft | 130 kts | 12° |
| 2026-05-07 01:40 | 50.52028 | -96.89001 | 7548 ft | 130 kts | 12° |
| 2026-05-07 01:40 | 50.52884 | -96.88516 | 7548 ft | 130 kts | 12° |
| 2026-05-07 01:41 | 50.53735 | -96.88034 | 7552 ft | 130 kts | 12° |
| 2026-05-07 01:41 | 50.54591 | -96.87550 | 7552 ft | 130 kts | 12° |
| 2026-05-07 01:41 | 50.55432 | -96.87072 | 7552 ft | 130 kts | 12° |
| 2026-05-07 01:41 | 50.56288 | -96.86588 | 7551 ft | 130 kts | 12° |
| 2026-05-07 01:42 | 50.57140 | -96.86104 | 7547 ft | 130 kts | 12° |
| 2026-05-07 01:42 | 50.57993 | -96.85620 | 7547 ft | 130 kts | 12° |
| 2026-05-07 01:42 | 50.58846 | -96.85137 | 7546 ft | 130 kts | 12° |
| 2026-05-07 01:42 | 50.59699 | -96.84652 | 7546 ft | 130 kts | 12° |
| 2026-05-07 01:43 | 50.60553 | -96.84166 | 7546 ft | 130 kts | 12° |
| 2026-05-07 01:43 | 50.61406 | -96.83682 | 7545 ft | 130 kts | 12° |
| 2026-05-07 01:43 | 50.62261 | -96.83196 | 7545 ft | 130 kts | 12° |
| 2026-05-07 01:43 | 50.63102 | -96.82718 | 7545 ft | 130 kts | 12° |
| 2026-05-07 01:44 | 50.63957 | -96.82231 | 7548 ft | 130 kts | 12° |
| 2026-05-07 01:44 | 50.64807 | -96.81747 | 7547 ft | 130 kts | 12° |
| 2026-05-07 01:44 | 50.65662 | -96.81261 | 7547 ft | 130 kts | 12° |
| 2026-05-07 01:44 | 50.66514 | -96.80775 | 7547 ft | 130 kts | 12° |
| 2026-05-07 01:45 | 50.67369 | -96.80289 | 7543 ft | 130 kts | 12° |
| 2026-05-07 01:45 | 50.68221 | -96.79802 | 7554 ft | 130 kts | 12° |
| 2026-05-07 01:45 | 50.69070 | -96.79318 | 7554 ft | 129 kts | 12° |
| 2026-05-07 01:45 | 50.69904 | -96.78843 | 7554 ft | 129 kts | 12° |
| 2026-05-07 01:46 | 50.70746 | -96.78362 | 7551 ft | 129 kts | 12° |
| 2026-05-07 01:46 | 50.71589 | -96.77880 | 7550 ft | 129 kts | 12° |
| 2026-05-07 01:46 | 50.72428 | -96.77402 | 7549 ft | 129 kts | 12° |
| 2026-05-07 01:46 | 50.73269 | -96.76921 | 7549 ft | 128 kts | 12° |
| 2026-05-07 01:47 | 50.74111 | -96.76440 | 7551 ft | 128 kts | 12° |
| 2026-05-07 01:47 | 50.74953 | -96.75959 | 7550 ft | 128 kts | 12° |
| 2026-05-07 01:47 | 50.75793 | -96.75478 | 7550 ft | 128 kts | 12° |
| 2026-05-07 01:47 | 50.76634 | -96.74998 | 7552 ft | 128 kts | 12° |
| 2026-05-07 01:48 | 50.77474 | -96.74516 | 7543 ft | 128 kts | 12° |
| 2026-05-07 01:48 | 50.78316 | -96.74035 | 7543 ft | 129 kts | 12° |
| 2026-05-07 01:48 | 50.79156 | -96.73553 | 7543 ft | 128 kts | 12° |
| 2026-05-07 01:48 | 50.79997 | -96.73071 | 7542 ft | 129 kts | 12° |
| 2026-05-07 01:49 | 50.80838 | -96.72589 | 7545 ft | 129 kts | 12° |
| 2026-05-07 01:49 | 50.81670 | -96.72112 | 7545 ft | 129 kts | 12° |
| 2026-05-07 01:49 | 50.82511 | -96.71629 | 7545 ft | 129 kts | 12° |
| 2026-05-07 01:49 | 50.83354 | -96.71146 | 7544 ft | 129 kts | 12° |
| 2026-05-07 01:50 | 50.84195 | -96.70662 | 7547 ft | 129 kts | 12° |
| 2026-05-07 01:50 | 50.85036 | -96.70180 | 7546 ft | 129 kts | 12° |
| 2026-05-07 01:50 | 50.85878 | -96.69696 | 7546 ft | 128 kts | 12° |
| 2026-05-07 01:50 | 50.86717 | -96.69213 | 7546 ft | 129 kts | 12° |
| 2026-05-07 01:51 | 50.87559 | -96.68730 | 7543 ft | 128 kts | 12° |
| 2026-05-07 01:51 | 50.88399 | -96.68246 | 7543 ft | 128 kts | 12° |
| 2026-05-07 01:51 | 50.88956 | -96.67926 | 7542 ft | 128 kts | 12° |
| 2026-05-07 01:51 | 50.89797 | -96.67441 | 7542 ft | 128 kts | 12° |
| 2026-05-07 01:52 | 50.90637 | -96.66958 | 7540 ft | 129 kts | 12° |
| 2026-05-07 01:52 | 50.91478 | -96.66474 | 7540 ft | 128 kts | 12° |
| 2026-05-07 01:52 | 50.92317 | -96.65989 | 7539 ft | 128 kts | 12° |
| 2026-05-07 01:52 | 50.93159 | -96.65505 | 7539 ft | 128 kts | 12° |
| 2026-05-07 01:53 | 50.93999 | -96.65020 | 7540 ft | 128 kts | 12° |
| 2026-05-07 01:53 | 50.94837 | -96.64536 | 7540 ft | 128 kts | 12° |
| 2026-05-07 01:53 | 50.95665 | -96.64059 | 7540 ft | 128 kts | 12° |
| 2026-05-07 01:53 | 50.96504 | -96.63574 | 7539 ft | 128 kts | 12° |
| 2026-05-07 01:54 | 50.97343 | -96.63090 | 7541 ft | 128 kts | 13° |
| 2026-05-07 01:54 | 50.98183 | -96.62604 | 7541 ft | 128 kts | 12° |
| 2026-05-07 01:54 | 50.99023 | -96.62118 | 7541 ft | 128 kts | 13° |
| 2026-05-07 01:54 | 50.99863 | -96.61633 | 7548 ft | 129 kts | 13° |
| 2026-05-07 01:55 | 51.00706 | -96.61145 | 7555 ft | 129 kts | 13° |
| 2026-05-07 01:55 | 51.01551 | -96.60655 | 7550 ft | 129 kts | 13° |
| 2026-05-07 01:55 | 51.02400 | -96.60164 | 7550 ft | 129 kts | 13° |
| 2026-05-07 01:55 | 51.03244 | -96.59676 | 7550 ft | 129 kts | 13° |
| 2026-05-07 01:56 | 51.04090 | -96.59185 | 7545 ft | 129 kts | 13° |
| 2026-05-07 01:56 | 51.04936 | -96.58695 | 7544 ft | 129 kts | 13° |
| 2026-05-07 01:56 | 51.05782 | -96.58204 | 7544 ft | 129 kts | 13° |
| 2026-05-07 01:56 | 51.06629 | -96.57713 | 7544 ft | 130 kts | 13° |
| 2026-05-07 01:57 | 51.07475 | -96.57222 | 7546 ft | 129 kts | 13° |
| 2026-05-07 01:57 | 51.08322 | -96.56730 | 7546 ft | 129 kts | 13° |
| 2026-05-07 01:57 | 51.09171 | -96.56238 | 7545 ft | 130 kts | 13° |
| 2026-05-07 01:57 | 51.10004 | -96.55753 | 7545 ft | 129 kts | 13° |
| 2026-05-07 01:58 | 51.10851 | -96.55261 | 7542 ft | 130 kts | 13° |
| 2026-05-07 01:58 | 51.11700 | -96.54768 | 7542 ft | 130 kts | 13° |
| 2026-05-07 01:58 | 51.12545 | -96.54275 | 7542 ft | 130 kts | 13° |
| 2026-05-07 01:58 | 51.13394 | -96.53782 | 7541 ft | 130 kts | 13° |
| 2026-05-07 01:59 | 51.14241 | -96.53289 | 7543 ft | 130 kts | 13° |
| 2026-05-07 01:59 | 51.15089 | -96.52795 | 7546 ft | 130 kts | 13° |
| 2026-05-07 01:59 | 51.15940 | -96.52300 | 7548 ft | 130 kts | 13° |
| 2026-05-07 01:59 | 51.16790 | -96.51803 | 7547 ft | 131 kts | 13° |
| 2026-05-07 02:00 | 51.17644 | -96.51305 | 7546 ft | 130 kts | 13° |
| 2026-05-07 02:00 | 51.18497 | -96.50809 | 7547 ft | 131 kts | 13° |
| 2026-05-07 02:00 | 51.19352 | -96.50309 | 7548 ft | 131 kts | 13° |
| 2026-05-07 02:00 | 51.20201 | -96.49814 | 7549 ft | 132 kts | 13° |
| 2026-05-07 02:01 | 51.21061 | -96.49312 | 7548 ft | 132 kts | 13° |
| 2026-05-07 02:01 | 51.21920 | -96.48809 | 7548 ft | 131 kts | 13° |
| 2026-05-07 02:01 | 51.22782 | -96.48306 | 7548 ft | 131 kts | 13° |
| 2026-05-07 02:01 | 51.23640 | -96.47804 | 7545 ft | 131 kts | 13° |
| 2026-05-07 02:02 | 51.24501 | -96.47300 | 7545 ft | 132 kts | 13° |
| 2026-05-07 02:02 | 51.25358 | -96.46799 | 7544 ft | 131 kts | 13° |
| 2026-05-07 02:02 | 51.26217 | -96.46296 | 7541 ft | 131 kts | 13° |
| 2026-05-07 02:02 | 51.27074 | -96.45795 | 7540 ft | 131 kts | 13° |
| 2026-05-07 02:03 | 51.27920 | -96.45298 | 7539 ft | 131 kts | 13° |
| 2026-05-07 02:03 | 51.28776 | -96.44797 | 7539 ft | 131 kts | 13° |
| 2026-05-07 02:03 | 51.29634 | -96.44294 | 7538 ft | 131 kts | 13° |
| 2026-05-07 02:03 | 51.30489 | -96.43792 | 7538 ft | 131 kts | 13° |
| 2026-05-07 02:04 | 51.31345 | -96.43291 | 7537 ft | 131 kts | 13° |
| 2026-05-07 02:04 | 51.32202 | -96.42787 | 7537 ft | 131 kts | 13° |
| 2026-05-07 02:04 | 51.33057 | -96.42286 | 7537 ft | 131 kts | 13° |
| 2026-05-07 02:04 | 51.33911 | -96.41784 | 7539 ft | 131 kts | 13° |
| 2026-05-07 02:05 | 51.34766 | -96.41280 | 7536 ft | 131 kts | 13° |
| 2026-05-07 02:05 | 51.35621 | -96.40778 | 7537 ft | 131 kts | 13° |
| 2026-05-07 02:05 | 51.36464 | -96.40283 | 7537 ft | 131 kts | 13° |
| 2026-05-07 02:05 | 51.37321 | -96.39778 | 7537 ft | 131 kts | 13° |
| 2026-05-07 02:06 | 51.38178 | -96.39274 | 7537 ft | 131 kts | 13° |
| 2026-05-07 02:06 | 51.39035 | -96.38768 | 7538 ft | 132 kts | 13° |
| 2026-05-07 02:06 | 51.39895 | -96.38262 | 7537 ft | 131 kts | 13° |
| 2026-05-07 02:06 | 51.40757 | -96.37756 | 7543 ft | 132 kts | 13° |
| 2026-05-07 02:07 | 51.41622 | -96.37245 | 7542 ft | 133 kts | 14° |
| 2026-05-07 02:07 | 51.43358 | -96.36219 | 7544 ft | 133 kts | 14° |
| 2026-05-07 02:07 | 51.44232 | -96.35705 | 7544 ft | 134 kts | 14° |
| 2026-05-07 02:08 | 51.45104 | -96.35189 | 7538 ft | 133 kts | 14° |
| 2026-05-07 02:08 | 51.45961 | -96.34682 | 7538 ft | 133 kts | 14° |
| 2026-05-07 02:08 | 51.46831 | -96.34169 | 7535 ft | 133 kts | 13° |
| 2026-05-07 02:08 | 51.47699 | -96.33657 | 7534 ft | 133 kts | 14° |
| 2026-05-07 02:09 | 51.48572 | -96.33139 | 7534 ft | 133 kts | 13° |
| 2026-05-07 02:09 | 51.49442 | -96.32624 | 7534 ft | 133 kts | 14° |
| 2026-05-07 02:09 | 51.50312 | -96.32108 | 7534 ft | 133 kts | 13° |
| 2026-05-07 02:09 | 51.51182 | -96.31594 | 7533 ft | 133 kts | 14° |
| 2026-05-07 02:10 | 51.52052 | -96.31079 | 7535 ft | 133 kts | 14° |
| 2026-05-07 02:10 | 51.52922 | -96.30564 | 7535 ft | 133 kts | 14° |
| 2026-05-07 02:10 | 51.53791 | -96.30049 | 7534 ft | 133 kts | 14° |
| 2026-05-07 02:10 | 51.54649 | -96.29539 | 7529 ft | 133 kts | 14° |
| 2026-05-07 02:11 | 51.55520 | -96.29021 | 7529 ft | 133 kts | 14° |
| 2026-05-07 02:11 | 51.56392 | -96.28503 | 7529 ft | 133 kts | 13° |
| 2026-05-07 02:11 | 51.57261 | -96.27989 | 7528 ft | 133 kts | 14° |
| 2026-05-07 02:11 | 51.58131 | -96.27471 | 7528 ft | 133 kts | 13° |
| 2026-05-07 02:12 | 51.58998 | -96.26958 | 7534 ft | 133 kts | 14° |
| 2026-05-07 02:12 | 51.59874 | -96.26434 | 7533 ft | 134 kts | 14° |
| 2026-05-07 02:12 | 51.60737 | -96.25921 | 7533 ft | 134 kts | 14° |
| 2026-05-07 02:12 | 51.61614 | -96.25399 | 7533 ft | 135 kts | 14° |
| 2026-05-07 02:13 | 51.62492 | -96.24877 | 7534 ft | 134 kts | 14° |
| 2026-05-07 02:13 | 51.63373 | -96.24352 | 7536 ft | 135 kts | 14° |
| 2026-05-07 02:13 | 51.64252 | -96.23828 | 7531 ft | 135 kts | 14° |
| 2026-05-07 02:13 | 51.65133 | -96.23303 | 7533 ft | 135 kts | 15° |
| 2026-05-07 02:14 | 51.66018 | -96.22775 | 7537 ft | 135 kts | 15° |
| 2026-05-07 02:14 | 51.66901 | -96.22248 | 7536 ft | 135 kts | 15° |
| 2026-05-07 02:14 | 51.67785 | -96.21722 | 7537 ft | 136 kts | 15° |
| 2026-05-07 02:14 | 51.68661 | -96.21199 | 7537 ft | 136 kts | 15° |
| 2026-05-07 02:15 | 51.69548 | -96.20668 | 7536 ft | 135 kts | 15° |
| 2026-05-07 02:15 | 51.70434 | -96.20138 | 7527 ft | 136 kts | 15° |
| 2026-05-07 02:15 | 51.71318 | -96.19609 | 7527 ft | 135 kts | 15° |
| 2026-05-07 02:15 | 51.72202 | -96.19081 | 7526 ft | 135 kts | 15° |
| 2026-05-07 02:16 | 51.73088 | -96.18551 | 7528 ft | 136 kts | 15° |
| 2026-05-07 02:16 | 51.73972 | -96.18022 | 7525 ft | 136 kts | 15° |
| 2026-05-07 02:16 | 51.74847 | -96.17498 | 7523 ft | 136 kts | 15° |
| 2026-05-07 02:16 | 51.75731 | -96.16967 | 7523 ft | 136 kts | 15° |
| 2026-05-07 02:17 | 51.76617 | -96.16437 | 7525 ft | 136 kts | 15° |
| 2026-05-07 02:17 | 51.77502 | -96.15907 | 7524 ft | 136 kts | 15° |
| 2026-05-07 02:17 | 51.78385 | -96.15377 | 7524 ft | 135 kts | 15° |
| 2026-05-07 02:17 | 51.79270 | -96.14846 | 7524 ft | 136 kts | 15° |
| 2026-05-07 02:18 | 51.80154 | -96.14315 | 7521 ft | 136 kts | 15° |
| 2026-05-07 02:18 | 51.81040 | -96.13784 | 7521 ft | 136 kts | 15° |
| 2026-05-07 02:18 | 51.81924 | -96.13251 | 7522 ft | 136 kts | 15° |
| 2026-05-07 02:18 | 51.82809 | -96.12720 | 7520 ft | 136 kts | 15° |
| 2026-05-07 02:19 | 51.83696 | -96.12187 | 7522 ft | 136 kts | 15° |
| 2026-05-07 02:19 | 51.84582 | -96.11653 | 7517 ft | 136 kts | 15° |
| 2026-05-07 02:19 | 51.85466 | -96.11121 | 7516 ft | 136 kts | 15° |
| 2026-05-07 02:19 | 51.86352 | -96.10588 | 7514 ft | 135 kts | 15° |
| 2026-05-07 02:20 | 51.87235 | -96.10055 | 7518 ft | 135 kts | 15° |
| 2026-05-07 02:20 | 51.88108 | -96.09529 | 7519 ft | 135 kts | 15° |
| 2026-05-07 02:20 | 51.88993 | -96.08996 | 7520 ft | 136 kts | 15° |
| 2026-05-07 02:20 | 51.89882 | -96.08461 | 7519 ft | 136 kts | 15° |
| 2026-05-07 02:21 | 51.90770 | -96.07924 | 7521 ft | 136 kts | 15° |
| 2026-05-07 02:21 | 51.91658 | -96.07388 | 7521 ft | 136 kts | 15° |
| 2026-05-07 02:21 | 51.92545 | -96.06852 | 7521 ft | 136 kts | 15° |
| 2026-05-07 02:21 | 51.93435 | -96.06315 | 7520 ft | 136 kts | 15° |
| 2026-05-07 02:22 | 51.94322 | -96.05778 | 7514 ft | 136 kts | 15° |
| 2026-05-07 02:22 | 51.95211 | -96.05241 | 7513 ft | 136 kts | 15° |
| 2026-05-07 02:22 | 51.96099 | -96.04703 | 7512 ft | 136 kts | 15° |
| 2026-05-07 02:22 | 51.96975 | -96.04173 | 7512 ft | 136 kts | 15° |
| 2026-05-07 02:23 | 51.97863 | -96.03636 | 7513 ft | 136 kts | 15° |
| 2026-05-07 02:23 | 51.98752 | -96.03097 | 7512 ft | 136 kts | 15° |
| 2026-05-07 02:23 | 51.99641 | -96.02559 | 7512 ft | 136 kts | 15° |
| 2026-05-07 02:23 | 52.00531 | -96.02019 | 7512 ft | 136 kts | 15° |
| 2026-05-07 02:24 | 52.01422 | -96.01481 | 7510 ft | 137 kts | 15° |
| 2026-05-07 02:24 | 52.02314 | -96.00937 | 7511 ft | 137 kts | 15° |
| 2026-05-07 02:24 | 52.03204 | -96.00397 | 7511 ft | 136 kts | 15° |
| 2026-05-07 02:24 | 52.04092 | -95.99858 | 7505 ft | 136 kts | 15° |
| 2026-05-07 02:25 | 52.04981 | -95.99318 | 7503 ft | 136 kts | 15° |
| 2026-05-07 02:25 | 52.05855 | -95.98786 | 7502 ft | 136 kts | 15° |
| 2026-05-07 02:25 | 52.06741 | -95.98248 | 7501 ft | 136 kts | 15° |
| 2026-05-07 02:25 | 52.07625 | -95.97710 | 7500 ft | 136 kts | 15° |
| 2026-05-07 02:26 | 52.08515 | -95.97171 | 7361 ft | 143 kts | 15° |
| 2026-05-07 02:26 | 52.09459 | -95.96584 | 6821 ft | 144 kts | 18° |
| 2026-05-07 02:26 | 52.10392 | -95.96002 | 6291 ft | 143 kts | 17° |
| 2026-05-07 02:26 | 52.11325 | -95.95435 | 5713 ft | 143 kts | 18° |
| 2026-05-07 02:27 | 52.12255 | -95.94867 | 5155 ft | 142 kts | 20° |
| 2026-05-07 02:27 | 52.13182 | -95.94305 | 4597 ft | 142 kts | 21° |
| 2026-05-07 02:27 | 52.14097 | -95.93728 | 4038 ft | 140 kts | 19° |
| 2026-05-07 02:27 | 52.15008 | -95.93181 | 3527 ft | 137 kts | 19° |
| 2026-05-07 02:28 | 52.15831 | -95.92693 | 3505 ft | 126 kts | 17° |
| 2026-05-07 02:28 | 52.16682 | -95.92193 | 3510 ft | 133 kts | 18° |
| 2026-05-07 02:28 | 52.17558 | -95.91656 | 3515 ft | 136 kts | 18° |
| 2026-05-07 02:28 | 52.18454 | -95.91100 | 3522 ft | 138 kts | 18° |
| 2026-05-07 02:29 | 52.19345 | -95.90559 | 3576 ft | 137 kts | 18° |
| 2026-05-07 02:29 | 52.20243 | -95.90013 | 3579 ft | 138 kts | 18° |
| 2026-05-07 02:29 | 52.21142 | -95.89460 | 3578 ft | 138 kts | 18° |
| 2026-05-07 02:29 | 52.22045 | -95.88907 | 3583 ft | 139 kts | 18° |
| 2026-05-07 02:30 | 52.22957 | -95.88350 | 3579 ft | 140 kts | 18° |
| 2026-05-07 02:30 | 52.23868 | -95.87788 | 3585 ft | 140 kts | 18° |
| 2026-05-07 02:30 | 52.24779 | -95.87230 | 3580 ft | 140 kts | 18° |
| 2026-05-07 02:30 | 52.25682 | -95.86678 | 3585 ft | 140 kts | 18° |
| 2026-05-07 02:31 | 52.26592 | -95.86118 | 3582 ft | 140 kts | 18° |
| 2026-05-07 02:31 | 52.27503 | -95.85559 | 3578 ft | 140 kts | 18° |
| 2026-05-07 02:31 | 52.28415 | -95.84996 | 3578 ft | 140 kts | 18° |
| 2026-05-07 02:31 | 52.29327 | -95.84437 | 3586 ft | 140 kts | 18° |
| 2026-05-07 02:32 | 52.30239 | -95.83877 | 3579 ft | 140 kts | 18° |
| 2026-05-07 02:32 | 52.31151 | -95.83316 | 3587 ft | 140 kts | 18° |
| 2026-05-07 02:32 | 52.32065 | -95.82753 | 3579 ft | 140 kts | 18° |
| 2026-05-07 02:32 | 52.32976 | -95.82193 | 3585 ft | 140 kts | 18° |
| 2026-05-07 02:33 | 52.33888 | -95.81630 | 3574 ft | 140 kts | 18° |
| 2026-05-07 02:33 | 52.34801 | -95.81069 | 3575 ft | 140 kts | 18° |
| 2026-05-07 02:33 | 52.35719 | -95.80503 | 3576 ft | 140 kts | 18° |
| 2026-05-07 02:33 | 52.36622 | -95.79944 | 3579 ft | 140 kts | 18° |
| 2026-05-07 02:34 | 52.37535 | -95.79380 | 3579 ft | 140 kts | 18° |
| 2026-05-07 02:34 | 52.38448 | -95.78817 | 3573 ft | 140 kts | 18° |
| 2026-05-07 02:34 | 52.39356 | -95.78256 | 3582 ft | 139 kts | 18° |
| 2026-05-07 02:34 | 52.40263 | -95.77695 | 3574 ft | 139 kts | 18° |
| 2026-05-07 02:35 | 52.41169 | -95.77136 | 3578 ft | 139 kts | 18° |
| 2026-05-07 02:35 | 52.42077 | -95.76575 | 3581 ft | 139 kts | 18° |
| 2026-05-07 02:35 | 52.42981 | -95.76015 | 3573 ft | 139 kts | 18° |
| 2026-05-07 02:35 | 52.43873 | -95.75462 | 3571 ft | 139 kts | 18° |
| 2026-05-07 02:36 | 52.44779 | -95.74901 | 3574 ft | 139 kts | 18° |
| 2026-05-07 02:36 | 52.45683 | -95.74341 | 3581 ft | 139 kts | 18° |
| 2026-05-07 02:36 | 52.46589 | -95.73780 | 3573 ft | 139 kts | 18° |
| 2026-05-07 02:36 | 52.47496 | -95.73218 | 3570 ft | 139 kts | 18° |
| 2026-05-07 02:37 | 52.48403 | -95.72654 | 3572 ft | 139 kts | 18° |
| 2026-05-07 02:37 | 52.49308 | -95.72092 | 3567 ft | 139 kts | 18° |
| 2026-05-07 02:37 | 52.50215 | -95.71529 | 3573 ft | 139 kts | 18° |
| 2026-05-07 02:37 | 52.51120 | -95.70968 | 3572 ft | 139 kts | 18° |
| 2026-05-07 02:38 | 52.52026 | -95.70405 | 3569 ft | 139 kts | 18° |
| 2026-05-07 02:38 | 52.52933 | -95.69842 | 3579 ft | 139 kts | 18° |
| 2026-05-07 02:38 | 52.53827 | -95.69284 | 3573 ft | 139 kts | 18° |
| 2026-05-07 02:38 | 52.54734 | -95.68720 | 3575 ft | 139 kts | 18° |
| 2026-05-07 02:39 | 52.55640 | -95.68157 | 3574 ft | 139 kts | 18° |
| 2026-05-07 02:39 | 52.56546 | -95.67591 | 3569 ft | 139 kts | 18° |
| 2026-05-07 02:39 | 52.57453 | -95.67026 | 3566 ft | 139 kts | 18° |
| 2026-05-07 02:39 | 52.58360 | -95.66462 | 3567 ft | 139 kts | 18° |
| 2026-05-07 02:40 | 52.59264 | -95.65898 | 3567 ft | 139 kts | 18° |
| 2026-05-07 02:40 | 52.60169 | -95.65333 | 3567 ft | 139 kts | 18° |
| 2026-05-07 02:40 | 52.61074 | -95.64767 | 3566 ft | 139 kts | 18° |
| 2026-05-07 02:40 | 52.61674 | -95.64393 | 3567 ft | 139 kts | 18° |
| 2026-05-07 02:41 | 52.62577 | -95.63828 | 3569 ft | 139 kts | 18° |
| 2026-05-07 02:41 | 52.63776 | -95.63082 | 3575 ft | 138 kts | 19° |
| 2026-05-07 02:41 | 52.64676 | -95.62518 | 3568 ft | 138 kts | 19° |
| 2026-05-07 02:41 | 52.65284 | -95.62139 | 3568 ft | 138 kts | 19° |
| 2026-05-07 02:42 | 52.66183 | -95.61574 | 3568 ft | 138 kts | 19° |
| 2026-05-07 02:42 | 52.67069 | -95.61020 | 3568 ft | 138 kts | 19° |
| 2026-05-07 02:42 | 52.67969 | -95.60456 | 3567 ft | 138 kts | 19° |
| 2026-05-07 02:42 | 52.68866 | -95.59894 | 3567 ft | 138 kts | 19° |
| 2026-05-07 02:43 | 52.69763 | -95.59331 | 3568 ft | 138 kts | 19° |
| 2026-05-07 02:43 | 52.70660 | -95.58769 | 3568 ft | 138 kts | 18° |
| 2026-05-07 02:43 | 52.71558 | -95.58206 | 3568 ft | 138 kts | 19° |
| 2026-05-07 02:43 | 52.72455 | -95.57643 | 3569 ft | 138 kts | 18° |
| 2026-05-07 02:44 | 52.73354 | -95.57078 | 3566 ft | 138 kts | 19° |
| 2026-05-07 02:44 | 52.74252 | -95.56514 | 3570 ft | 138 kts | 19° |
| 2026-05-07 02:44 | 52.75150 | -95.55949 | 3575 ft | 138 kts | 19° |
| 2026-05-07 02:44 | 52.76050 | -95.55383 | 3572 ft | 138 kts | 19° |
| 2026-05-07 02:45 | 52.76937 | -95.54825 | 3571 ft | 138 kts | 18° |
| 2026-05-07 02:45 | 52.77838 | -95.54259 | 3570 ft | 138 kts | 19° |
| 2026-05-07 02:45 | 52.78741 | -95.53692 | 3573 ft | 138 kts | 19° |
| 2026-05-07 02:45 | 52.79641 | -95.53125 | 3573 ft | 139 kts | 19° |
| 2026-05-07 02:46 | 52.80544 | -95.52554 | 3570 ft | 139 kts | 19° |
| 2026-05-07 02:46 | 52.81449 | -95.51983 | 3570 ft | 139 kts | 19° |
| 2026-05-07 02:46 | 52.82340 | -95.51422 | 3570 ft | 139 kts | 19° |
| 2026-05-07 02:46 | 52.83245 | -95.50850 | 3569 ft | 139 kts | 19° |
| 2026-05-07 02:47 | 52.84147 | -95.50282 | 3571 ft | 139 kts | 19° |
| 2026-05-07 02:47 | 52.85050 | -95.49710 | 3570 ft | 139 kts | 19° |
| 2026-05-07 02:47 | 52.85954 | -95.49140 | 3571 ft | 139 kts | 19° |
| 2026-05-07 02:47 | 52.86856 | -95.48568 | 3570 ft | 139 kts | 19° |
| 2026-05-07 02:48 | 52.87758 | -95.47999 | 3571 ft | 139 kts | 19° |
| 2026-05-07 02:48 | 52.88648 | -95.47436 | 3571 ft | 139 kts | 18° |
| 2026-05-07 02:48 | 52.89549 | -95.46865 | 3572 ft | 139 kts | 18° |
| 2026-05-07 02:48 | 52.90453 | -95.46293 | 3571 ft | 139 kts | 18° |
| 2026-05-07 02:49 | 52.91355 | -95.45721 | 3571 ft | 139 kts | 18° |
| 2026-05-07 02:49 | 52.92257 | -95.45149 | 3570 ft | 138 kts | 18° |
| 2026-05-07 02:49 | 52.93156 | -95.44581 | 3569 ft | 138 kts | 18° |
| 2026-05-07 02:49 | 52.94054 | -95.44009 | 3572 ft | 138 kts | 18° |
| 2026-05-07 02:50 | 52.94954 | -95.43438 | 3575 ft | 139 kts | 18° |
| 2026-05-07 02:50 | 52.95855 | -95.42866 | 3574 ft | 138 kts | 18° |
| 2026-05-07 02:50 | 52.96755 | -95.42294 | 3573 ft | 139 kts | 18° |
| 2026-05-07 02:50 | 52.97655 | -95.41720 | 3574 ft | 138 kts | 18° |
| 2026-05-07 02:51 | 52.98554 | -95.41149 | 3568 ft | 138 kts | 18° |
| 2026-05-07 02:51 | 52.99457 | -95.40576 | 3568 ft | 139 kts | 18° |
| 2026-05-07 02:51 | 53.00358 | -95.40002 | 3568 ft | 139 kts | 18° |
| 2026-05-07 02:51 | 53.01262 | -95.39426 | 3568 ft | 139 kts | 18° |
| 2026-05-07 02:52 | 53.02164 | -95.38851 | 3572 ft | 139 kts | 18° |
| 2026-05-07 02:52 | 53.03056 | -95.38282 | 3573 ft | 139 kts | 18° |
| 2026-05-07 02:52 | 53.03955 | -95.37711 | 3572 ft | 139 kts | 18° |
| 2026-05-07 02:52 | 53.04857 | -95.37134 | 3572 ft | 139 kts | 18° |
| 2026-05-07 02:53 | 53.05758 | -95.36559 | 3571 ft | 139 kts | 18° |
| 2026-05-07 02:53 | 53.06659 | -95.35983 | 3570 ft | 139 kts | 18° |
| 2026-05-07 02:53 | 53.07559 | -95.35409 | 3570 ft | 138 kts | 18° |
| 2026-05-07 02:53 | 53.08459 | -95.34835 | 3570 ft | 139 kts | 18° |
| 2026-05-07 02:54 | 53.09361 | -95.34257 | 3573 ft | 138 kts | 18° |
| 2026-05-07 02:54 | 53.10262 | -95.33681 | 3571 ft | 138 kts | 18° |
| 2026-05-07 02:54 | 53.11162 | -95.33105 | 3570 ft | 138 kts | 18° |
| 2026-05-07 02:54 | 53.12060 | -95.32531 | 3569 ft | 138 kts | 18° |
| 2026-05-07 02:55 | 53.12959 | -95.31954 | 3571 ft | 138 kts | 18° |
| 2026-05-07 02:55 | 53.13857 | -95.31378 | 3574 ft | 139 kts | 17° |
| 2026-05-07 02:55 | 53.14746 | -95.30809 | 3574 ft | 139 kts | 17° |
| 2026-05-07 02:55 | 53.15648 | -95.30231 | 3575 ft | 139 kts | 17° |
| 2026-05-07 02:56 | 53.16565 | -95.29642 | 3574 ft | 139 kts | 17° |
| 2026-05-07 02:56 | 53.17455 | -95.29071 | 3574 ft | 139 kts | 17° |
| 2026-05-07 02:56 | 53.18300 | -95.28528 | 3574 ft | 139 kts | 17° |
| 2026-05-07 02:56 | 53.18486 | -95.28409 | 3573 ft | 139 kts | 17° |
| 2026-05-07 02:57 | 53.19390 | -95.27833 | 3570 ft | 139 kts | 17° |
| 2026-05-07 02:57 | 53.20293 | -95.27252 | 3569 ft | 139 kts | 17° |
| 2026-05-07 02:57 | 53.21189 | -95.26673 | 3569 ft | 138 kts | 17° |
| 2026-05-07 02:57 | 53.22081 | -95.26098 | 3571 ft | 137 kts | 17° |
| 2026-05-07 02:58 | 53.22970 | -95.25525 | 3572 ft | 137 kts | 17° |
| 2026-05-07 02:58 | 53.23860 | -95.24951 | 3572 ft | 137 kts | 17° |
| 2026-05-07 02:58 | 53.24749 | -95.24374 | 3571 ft | 137 kts | 17° |
| 2026-05-07 02:58 | 53.25642 | -95.23805 | 3572 ft | 137 kts | 17° |
| 2026-05-07 02:59 | 53.26534 | -95.23231 | 3571 ft | 137 kts | 17° |
| 2026-05-07 02:59 | 53.27424 | -95.22655 | 3570 ft | 137 kts | 17° |
| 2026-05-07 02:59 | 53.28304 | -95.22087 | 3570 ft | 137 kts | 17° |
| 2026-05-07 02:59 | 53.29194 | -95.21511 | 3569 ft | 137 kts | 17° |
| 2026-05-07 03:00 | 53.30083 | -95.20937 | 3574 ft | 137 kts | 17° |
| 2026-05-07 03:00 | 53.30971 | -95.20361 | 3574 ft | 137 kts | 17° |
| 2026-05-07 03:00 | 53.31862 | -95.19788 | 3574 ft | 137 kts | 17° |
| 2026-05-07 03:00 | 53.32752 | -95.19211 | 3575 ft | 137 kts | 17° |
| 2026-05-07 03:01 | 53.33644 | -95.18635 | 3574 ft | 137 kts | 17° |
| 2026-05-07 03:01 | 53.34537 | -95.18056 | 3574 ft | 137 kts | 17° |
| 2026-05-07 03:01 | 53.35428 | -95.17478 | 3573 ft | 137 kts | 17° |
| 2026-05-07 03:01 | 53.36319 | -95.16901 | 3573 ft | 137 kts | 17° |
| 2026-05-07 03:02 | 53.37208 | -95.16324 | 3573 ft | 137 kts | 17° |
| 2026-05-07 03:02 | 53.38098 | -95.15748 | 3574 ft | 137 kts | 17° |
| 2026-05-07 03:02 | 53.38989 | -95.15169 | 3573 ft | 138 kts | 17° |
| 2026-05-07 03:02 | 53.39881 | -95.14589 | 3574 ft | 138 kts | 17° |
| 2026-05-07 03:03 | 53.40774 | -95.14009 | 3578 ft | 137 kts | 17° |
| 2026-05-07 03:03 | 53.41654 | -95.13437 | 3580 ft | 137 kts | 17° |
| 2026-05-07 03:03 | 53.42545 | -95.12859 | 3575 ft | 137 kts | 17° |
| 2026-05-07 03:03 | 53.43433 | -95.12281 | 3574 ft | 137 kts | 17° |
| 2026-05-07 03:04 | 53.44318 | -95.11705 | 3576 ft | 136 kts | 17° |
| 2026-05-07 03:04 | 53.45205 | -95.11128 | 3574 ft | 136 kts | 17° |
| 2026-05-07 03:04 | 53.46087 | -95.10554 | 3573 ft | 137 kts | 17° |
| 2026-05-07 03:04 | 53.46975 | -95.09975 | 3572 ft | 137 kts | 17° |
| 2026-05-07 03:05 | 53.47861 | -95.09399 | 3567 ft | 136 kts | 17° |
| 2026-05-07 03:05 | 53.48731 | -95.08829 | 3565 ft | 136 kts | 17° |
| 2026-05-07 03:05 | 53.49610 | -95.08258 | 3567 ft | 135 kts | 17° |
| 2026-05-07 03:05 | 53.50484 | -95.07686 | 3569 ft | 134 kts | 17° |
| 2026-05-07 03:06 | 53.51355 | -95.07117 | 3562 ft | 134 kts | 17° |
| 2026-05-07 03:06 | 53.52220 | -95.06554 | 3563 ft | 133 kts | 17° |
| 2026-05-07 03:06 | 53.53079 | -95.05993 | 3563 ft | 132 kts | 17° |
| 2026-05-07 03:06 | 53.53938 | -95.05430 | 3564 ft | 132 kts | 17° |
| 2026-05-07 03:07 | 53.54795 | -95.04871 | 3565 ft | 132 kts | 17° |
| 2026-05-07 03:07 | 53.55657 | -95.04307 | 3566 ft | 133 kts | 17° |
| 2026-05-07 03:07 | 53.56508 | -95.03749 | 3566 ft | 133 kts | 17° |
| 2026-05-07 03:07 | 53.57385 | -95.03174 | 3568 ft | 134 kts | 17° |
| 2026-05-07 03:08 | 53.58245 | -95.02612 | 3574 ft | 135 kts | 17° |
| 2026-05-07 03:08 | 53.59124 | -95.02038 | 3576 ft | 136 kts | 17° |
| 2026-05-07 03:08 | 53.60008 | -95.01455 | 3578 ft | 136 kts | 17° |
| 2026-05-07 03:08 | 53.60892 | -95.00874 | 3581 ft | 137 kts | 17° |
| 2026-05-07 03:09 | 53.61781 | -95.00293 | 3584 ft | 138 kts | 17° |
| 2026-05-07 03:09 | 53.62675 | -94.99706 | 3582 ft | 139 kts | 17° |
| 2026-05-07 03:09 | 53.63576 | -94.99112 | 3585 ft | 139 kts | 17° |
| 2026-05-07 03:09 | 53.64483 | -94.98517 | 3580 ft | 140 kts | 17° |
| 2026-05-07 03:10 | 53.65391 | -94.97919 | 3577 ft | 140 kts | 17° |
| 2026-05-07 03:10 | 53.66331 | -94.97303 | 3368 ft | 151 kts | 17° |
| 2026-05-07 03:10 | 53.67331 | -94.96640 | 3110 ft | 156 kts | 18° |
| 2026-05-07 03:10 | 53.68340 | -94.95978 | 2855 ft | 158 kts | 17° |
| 2026-05-07 03:11 | 53.69363 | -94.95305 | 2596 ft | 151 kts | 18° |
| 2026-05-07 03:11 | 53.70228 | -94.94706 | 2553 ft | 119 kts | 18° |
| 2026-05-07 03:11 | 53.70975 | -94.94226 | 2560 ft | 114 kts | 16° |
| 2026-05-07 03:11 | 53.71708 | -94.93747 | 2563 ft | 112 kts | 16° |
| 2026-05-07 03:12 | 53.72428 | -94.93274 | 2560 ft | 111 kts | 16° |
| 2026-05-07 03:12 | 53.73143 | -94.92809 | 2565 ft | 109 kts | 15° |
| 2026-05-07 03:12 | 53.73852 | -94.92356 | 2563 ft | 109 kts | 15° |
| 2026-05-07 03:12 | 53.74568 | -94.91955 | 2564 ft | 108 kts | 12° |
| 2026-05-07 03:13 | 53.75293 | -94.91616 | 2568 ft | 108 kts | 9° |
| 2026-05-07 03:13 | 53.76030 | -94.91296 | 2472 ft | 112 kts | 12° |
| 2026-05-07 03:13 | 53.76782 | -94.90913 | 2408 ft | 118 kts | 14° |
| 2026-05-07 03:13 | 53.77557 | -94.90405 | 2309 ft | 121 kts | 20° |
| 2026-05-07 03:14 | 53.78317 | -94.89773 | 2168 ft | 121 kts | 24° |
| 2026-05-07 03:14 | 53.79031 | -94.89153 | 2030 ft | 110 kts | 24° |
| 2026-05-07 03:14 | 53.80414 | -94.88032 | 1856 ft | 120 kts | 26° |
| 2026-05-07 03:15 | 53.81113 | -94.87209 | 1814 ft | 124 kts | 38° |
| 2026-05-07 03:15 | 53.81727 | -94.86197 | 1864 ft | 124 kts | 43° |
| 2026-05-07 03:15 | 53.82302 | -94.85129 | 1914 ft | 121 kts | 46° |
| 2026-05-07 03:15 | 53.82844 | -94.84038 | 1882 ft | 122 kts | 46° |
| 2026-05-07 03:16 | 53.83415 | -94.82973 | 1851 ft | 123 kts | 41° |
| 2026-05-07 03:16 | 53.84048 | -94.81985 | 1806 ft | 124 kts | 39° |
| 2026-05-07 03:16 | 53.84714 | -94.81044 | 1701 ft | 126 kts | 26° |
| 2026-05-07 03:16 | 53.85472 | -94.80932 | 1761 ft | 102 kts | 334° |
| 2026-05-07 03:17 | 53.85940 | -94.81797 | 1551 ft | 105 kts | 288° |
| 2026-05-07 03:17 | 53.85862 | -94.83005 | 1306 ft | 107 kts | 248° |
| 2026-05-07 03:17 | 53.85425 | -94.83996 | 1040 ft | 104 kts | 237° |
| 2026-05-07 03:17 | 53.84900 | -94.84763 | 834 ft | 98 kts | 230° |
| 2026-05-07 03:18 | 53.84404 | -94.85460 | 778 ft | 86 kts | 225° |
| 2026-05-07 03:18 | 53.83929 | -94.86103 | 924 ft | 95 kts | 212° |
| 2026-05-07 03:18 | 53.83299 | -94.86289 | 1405 ft | 91 kts | 174° |
| 2026-05-07 03:18 | 53.83188 | -94.86249 | 1468 ft | 94 kts | 167° |
| 2026-05-07 03:19 | 53.83143 | -94.86227 | 1490 ft | 95 kts | 164° |
| 2026-05-07 03:19 | 53.82610 | -94.85430 | 1760 ft | 114 kts | 110° |
| 2026-05-07 03:19 | 53.82708 | -94.84061 | 1811 ft | 130 kts | 56° |
| 2026-05-07 03:19 | 53.83304 | -94.83144 | 1985 ft | 110 kts | 31° |
| 2026-05-07 03:20 | 53.83950 | -94.82315 | 1794 ft | 120 kts | 38° |
| 2026-05-07 03:20 | 53.84616 | -94.81734 | 1734 ft | 100 kts | 358° |
| 2026-05-07 03:20 | 53.85160 | -94.82207 | 1579 ft | 82 kts | 301° |
| 2026-05-07 03:20 | 53.85291 | -94.83126 | 1258 ft | 82 kts | 272° |
| 2026-05-07 03:21 | 53.85190 | -94.83990 | 1008 ft | 71 kts | 255° |
| 2026-05-07 03:21 | 53.84927 | -94.84671 | 797 ft | 69 kts | 226° |
| 2026-05-07 03:21 | 53.84615 | -94.85145 | 772 ft | 50 kts | 224° |
| 2026-05-07 03:21 | 53.84449 | -94.85406 | 769 ft | 15 kts | 224° |
| 2026-05-07 03:22 | 53.84437 | -94.85394 | 768 ft | 8 kts | 39° |
| 2026-05-07 03:22 | 53.84474 | -94.85340 | 771 ft | 10 kts | 53° |
| 2026-05-07 03:22 | 53.84458 | -94.85220 | 769 ft | 6 kts | 98° |
| 2026-05-07 03:22 | 53.84467 | -94.85171 | 769 ft | 0 kts | 2° |
| 2026-05-07 03:23 | 53.84466 | -94.85171 | 769 ft | 0 kts | 2° |